sensor_id;sensor_type;location;lat;lon;timestamp;pressure;altitude;pressure_sealevel;temperature;humidity
78149;BME280;67396;42.664;23.382;2023-04-03T00:02:14;94331.13;;;9.54;51.15
78149;BME280;67396;42.664;23.382;2023-04-03T00:04:42;94333.06;;;9.60;51.06
78149;BME280;67396;42.664;23.382;2023-04-03T00:07:08;94326.88;;;9.31;52.31
78149;BME280;67396;42.664;23.382;2023-04-03T00:09:33;94325.66;;;9.25;52.16
78149;BME280;67396;42.664;23.382;2023-04-03T00:11:59;94326.47;;;9.29;51.87
78149;BME280;67396;42.664;23.382;2023-04-03T00:14:25;94318.22;;;9.33;52.29
78149;BME280;67396;42.664;23.382;2023-04-03T00:16:52;94320.59;;;9.31;52.48
78149;BME280;67396;42.664;23.382;2023-04-03T00:19:18;94318.25;;;9.26;52.43
78149;BME280;67396;42.664;23.382;2023-04-03T00:21:43;94311.19;;;9.28;52.35
78149;BME280;67396;42.664;23.382;2023-04-03T00:24:12;94306.50;;;9.18;52.58
78149;BME280;67396;42.664;23.382;2023-04-03T00:26:38;94302.59;;;9.19;52.62
78149;BME280;67396;42.664;23.382;2023-04-03T00:29:03;94304.56;;;9.29;52.13
78149;BME280;67396;42.664;23.382;2023-04-03T00:31:32;94305.31;;;9.37;51.98
78149;BME280;67396;42.664;23.382;2023-04-03T00:33:58;94310.41;;;9.35;52.44
78149;BME280;67396;42.664;23.382;2023-04-03T00:36:23;94304.94;;;9.31;52.20
78149;BME280;67396;42.664;23.382;2023-04-03T00:38:48;94310.41;;;9.35;52.17
78149;BME280;67396;42.664;23.382;2023-04-03T00:41:14;94310.03;;;9.22;52.79
78149;BME280;67396;42.664;23.382;2023-04-03T00:43:42;94315.13;;;9.13;52.61
78149;BME280;67396;42.664;23.382;2023-04-03T00:46:07;94304.19;;;9.13;52.92
78149;BME280;67396;42.664;23.382;2023-04-03T00:48:40;94313.94;;;9.18;52.71
78149;BME280;67396;42.664;23.382;2023-04-03T00:51:10;94317.47;;;9.11;53.01
78149;BME280;67396;42.664;23.382;2023-04-03T00:53:44;94306.13;;;9.23;52.76
78149;BME280;67396;42.664;23.382;2023-04-03T00:56:14;94305.75;;;9.32;52.21
78149;BME280;67396;42.664;23.382;2023-04-03T00:58:44;94315.88;;;9.24;52.44
78149;BME280;67396;42.664;23.382;2023-04-03T01:01:18;94320.56;;;9.24;53.37
78149;BME280;67396;42.664;23.382;2023-04-03T01:03:46;94316.28;;;9.26;52.65
78149;BME280;67396;42.664;23.382;2023-04-03T01:06:13;94321.38;;;9.10;53.46
78149;BME280;67396;42.664;23.382;2023-04-03T01:08:41;94311.59;;;9.13;53.28
78149;BME280;67396;42.664;23.382;2023-04-03T01:11:07;94315.50;;;9.15;53.26
78149;BME280;67396;42.664;23.382;2023-04-03T01:13:32;94320.97;;;8.87;54.15
78149;BME280;67396;42.664;23.382;2023-04-03T01:16:03;94319.00;;;8.80;54.39
78149;BME280;67396;42.664;23.382;2023-04-03T01:18:30;94319.41;;;8.93;53.98
78149;BME280;67396;42.664;23.382;2023-04-03T01:24:11;94315.88;;;8.75;54.71
78149;BME280;67396;42.664;23.382;2023-04-03T01:26:34;94314.66;;;8.58;55.45
78149;BME280;67396;42.664;23.382;2023-04-03T01:29:01;94323.22;;;8.46;56.01
78149;BME280;67396;42.664;23.382;2023-04-03T01:34:01;94319.63;;;8.24;56.40
78149;BME280;67396;42.664;23.382;2023-04-03T01:36:29;94325.94;;;8.35;56.33
78149;BME280;67396;42.664;23.382;2023-04-03T01:38:56;94315.72;;;8.25;56.16
78149;BME280;67396;42.664;23.382;2023-04-03T01:41:22;94320.91;;;8.44;55.93
78149;BME280;67396;42.664;23.382;2023-04-03T01:43:48;94317.34;;;8.33;55.64
78149;BME280;67396;42.664;23.382;2023-04-03T01:46:18;94320.50;;;8.42;55.19
78149;BME280;67396;42.664;23.382;2023-04-03T01:48:43;94320.91;;;8.44;54.56
78149;BME280;67396;42.664;23.382;2023-04-03T01:51:10;94319.34;;;8.50;54.20
78149;BME280;67396;42.664;23.382;2023-04-03T01:53:36;94324.38;;;8.41;54.63
78149;BME280;67396;42.664;23.382;2023-04-03T01:56:01;94329.06;;;8.37;54.77
78149;BME280;67396;42.664;23.382;2023-04-03T01:58:27;94327.81;;;8.17;55.15
78149;BME280;67396;42.664;23.382;2023-04-03T02:00:52;94332.09;;;8.18;55.17
78149;BME280;67396;42.664;23.382;2023-04-03T02:03:18;94330.13;;;8.18;54.57
78149;BME280;67396;42.664;23.382;2023-04-03T02:05:44;94328.97;;;8.16;54.76
78149;BME280;67396;42.664;23.382;2023-04-03T02:08:09;94329.31;;;8.11;54.97
78149;BME280;67396;42.664;23.382;2023-04-03T02:10:35;94324.19;;;7.99;55.55
78149;BME280;67396;42.664;23.382;2023-04-03T02:13:00;94320.69;;;8.02;55.25
78149;BME280;67396;42.664;23.382;2023-04-03T02:15:26;94321.81;;;7.93;55.60
78149;BME280;67396;42.664;23.382;2023-04-03T02:17:52;94327.19;;;7.72;56.38
78149;BME280;67396;42.664;23.382;2023-04-03T02:20:18;94328.81;;;7.87;55.56
78149;BME280;67396;42.664;23.382;2023-04-03T02:22:43;94323.22;;;7.66;56.41
78149;BME280;67396;42.664;23.382;2023-04-03T02:25:09;94329.13;;;7.72;56.65
78149;BME280;67396;42.664;23.382;2023-04-03T02:27:35;94316.25;;;7.72;56.72
78149;BME280;67396;42.664;23.382;2023-04-03T02:30:02;94313.19;;;7.81;56.80
78149;BME280;67396;42.664;23.382;2023-04-03T02:32:27;94315.53;;;7.86;56.63
78149;BME280;67396;42.664;23.382;2023-04-03T02:34:53;94314.00;;;7.88;56.44
78149;BME280;67396;42.664;23.382;2023-04-03T02:37:18;94314.00;;;7.88;56.26
78149;BME280;67396;42.664;23.382;2023-04-03T02:39:44;94301.09;;;7.82;56.47
78149;BME280;67396;42.664;23.382;2023-04-03T02:42:09;94305.69;;;7.67;57.20
78149;BME280;67396;42.664;23.382;2023-04-03T02:44:35;94308.81;;;7.69;57.22
78149;BME280;67396;42.664;23.382;2023-04-03T02:47:01;94305.22;;;7.51;57.93
78149;BME280;67396;42.664;23.382;2023-04-03T02:49:27;94310.31;;;7.60;57.52
78149;BME280;67396;42.664;23.382;2023-04-03T02:51:53;94295.13;;;7.62;57.21
78149;BME280;67396;42.664;23.382;2023-04-03T02:54:18;94296.00;;;7.80;56.95
78149;BME280;67396;42.664;23.382;2023-04-03T02:56:44;94288.09;;;7.61;57.18
78149;BME280;67396;42.664;23.382;2023-04-03T02:59:09;94289.22;;;7.56;57.29
78149;BME280;67396;42.664;23.382;2023-04-03T03:01:35;94294.69;;;7.53;57.45
78149;BME280;67396;42.664;23.382;2023-04-03T03:04:01;94289.19;;;7.49;57.70
78149;BME280;67396;42.664;23.382;2023-04-03T03:06:26;94293.16;;;7.55;57.37
78149;BME280;67396;42.664;23.382;2023-04-03T03:08:52;94284.53;;;7.50;57.54
78149;BME280;67396;42.664;23.382;2023-04-03T03:11:18;94279.31;;;7.31;58.83
78149;BME280;67396;42.664;23.382;2023-04-03T03:13:43;94284.88;;;7.41;58.41
78149;BME280;67396;42.664;23.382;2023-04-03T03:16:09;94277.47;;;7.42;58.24
78149;BME280;67396;42.664;23.382;2023-04-03T03:18:35;94282.91;;;7.38;58.22
78149;BME280;67396;42.664;23.382;2023-04-03T03:21:02;94287.06;;;7.22;59.01
78149;BME280;67396;42.664;23.382;2023-04-03T03:23:30;94289.56;;;7.48;57.61
78149;BME280;67396;42.664;23.382;2023-04-03T03:26:03;94281.38;;;7.44;57.39
78149;BME280;67396;42.664;23.382;2023-04-03T03:28:29;94280.19;;;7.42;57.71
78149;BME280;67396;42.664;23.382;2023-04-03T03:30:54;94278.88;;;7.22;58.92
78149;BME280;67396;42.664;23.382;2023-04-03T03:33:20;94278.63;;;7.37;58.06
78149;BME280;67396;42.664;23.382;2023-04-03T03:35:46;94282.72;;;7.13;58.69
78149;BME280;67396;42.664;23.382;2023-04-03T03:38:11;94283.38;;;6.96;59.84
78149;BME280;67396;42.664;23.382;2023-04-03T03:40:37;94290.84;;;7.06;59.58
78149;BME280;67396;42.664;23.382;2023-04-03T03:43:03;94298.16;;;6.92;60.14
78149;BME280;67396;42.664;23.382;2023-04-03T03:45:28;94290.72;;;6.85;60.14
78149;BME280;67396;42.664;23.382;2023-04-03T03:47:54;94282.25;;;7.01;59.79
78149;BME280;67396;42.664;23.382;2023-04-03T03:50:19;94282.91;;;6.84;60.33
78149;BME280;67396;42.664;23.382;2023-04-03T03:52:45;94284.69;;;6.69;60.61
78149;BME280;67396;42.664;23.382;2023-04-03T03:55:11;94283.44;;;6.56;61.17
78149;BME280;67396;42.664;23.382;2023-04-03T03:57:36;94292.13;;;6.68;61.08
78149;BME280;67396;42.664;23.382;2023-04-03T04:00:03;94291.44;;;6.82;60.36
78149;BME280;67396;42.664;23.382;2023-04-03T04:02:31;94286.72;;;6.75;60.47
78149;BME280;67396;42.664;23.382;2023-04-03T04:04:59;94292.81;;;6.62;61.14
78149;BME280;67396;42.664;23.382;2023-04-03T04:07:27;94282.34;;;6.64;61.56
78149;BME280;67396;42.664;23.382;2023-04-03T04:09:54;94285.16;;;6.78;60.67
78149;BME280;67396;42.664;23.382;2023-04-03T04:12:20;94278.22;;;6.84;60.56
78149;BME280;67396;42.664;23.382;2023-04-03T04:14:46;94287.97;;;6.85;60.32
78149;BME280;67396;42.664;23.382;2023-04-03T04:17:12;94293.03;;;6.83;60.36
78149;BME280;67396;42.664;23.382;2023-04-03T04:19:38;94301.78;;;7.06;59.13
78149;BME280;67396;42.664;23.382;2023-04-03T04:22:03;94298.94;;;6.92;60.12
78149;BME280;67396;42.664;23.382;2023-04-03T04:24:29;94297.69;;;6.83;60.36
78149;BME280;67396;42.664;23.382;2023-04-03T04:26:55;94308.63;;;6.86;59.78
78149;BME280;67396;42.664;23.382;2023-04-03T04:29:20;94306.44;;;7.06;59.47
78149;BME280;67396;42.664;23.382;2023-04-03T04:31:46;94304.16;;;7.11;59.09
78149;BME280;67396;42.664;23.382;2023-04-03T04:34:11;94302.09;;;6.94;59.64
78149;BME280;67396;42.664;23.382;2023-04-03T04:36:38;94308.06;;;7.14;59.14
78149;BME280;67396;42.664;23.382;2023-04-03T04:39:04;94309.63;;;7.11;59.53
78149;BME280;67396;42.664;23.382;2023-04-03T04:41:31;94316.41;;;6.84;59.96
78149;BME280;67396;42.664;23.382;2023-04-03T04:43:57;94309.63;;;7.11;58.21
78149;BME280;67396;42.664;23.382;2023-04-03T04:46:22;94314.44;;;7.29;57.75
78149;BME280;67396;42.664;23.382;2023-04-03T04:48:48;94326.63;;;6.94;59.57
78149;BME280;67396;42.664;23.382;2023-04-03T04:51:14;94333.25;;;6.53;61.68
78149;BME280;67396;42.664;23.382;2023-04-03T04:53:48;94327.00;;;6.49;61.58
78149;BME280;67396;42.664;23.382;2023-04-03T04:56:14;94334.94;;;6.64;60.60
78149;BME280;67396;42.664;23.382;2023-04-03T04:58:39;94322.63;;;6.81;60.32
78149;BME280;67396;42.664;23.382;2023-04-03T05:01:07;94324.19;;;6.82;60.19
78149;BME280;67396;42.664;23.382;2023-04-03T05:03:33;94343.00;;;6.94;59.83
78149;BME280;67396;42.664;23.382;2023-04-03T05:05:59;94347.41;;;7.09;59.19
78149;BME280;67396;42.664;23.382;2023-04-03T05:08:25;94341.72;;;7.29;58.32
78149;BME280;67396;42.664;23.382;2023-04-03T05:10:51;94358.94;;;7.36;58.30
78149;BME280;67396;42.664;23.382;2023-04-03T05:13:16;94362.13;;;7.45;58.60
78149;BME280;67396;42.664;23.382;2023-04-03T05:15:42;94362.66;;;7.14;58.47
78149;BME280;67396;42.664;23.382;2023-04-03T05:18:08;94357.28;;;7.21;58.87
78149;BME280;67396;42.664;23.382;2023-04-03T05:20:35;94361.13;;;7.16;58.70
78149;BME280;67396;42.664;23.382;2023-04-03T05:23:02;94359.50;;;7.08;59.30
78149;BME280;67396;42.664;23.382;2023-04-03T05:25:27;94354.53;;;7.79;63.84
78149;BME280;67396;42.664;23.382;2023-04-03T05:27:52;94347.44;;;7.64;58.55
78149;BME280;67396;42.664;23.382;2023-04-03T05:30:18;94343.41;;;7.44;59.52
78149;BME280;67396;42.664;23.382;2023-04-03T05:32:44;94351.03;;;7.21;60.04
78149;BME280;67396;42.664;23.382;2023-04-03T05:35:10;94354.44;;;7.10;60.87
78149;BME280;67396;42.664;23.382;2023-04-03T05:37:38;94350.25;;;7.24;60.84
78149;BME280;67396;42.664;23.382;2023-04-03T05:40:05;94338.19;;;7.25;60.86
78149;BME280;67396;42.664;23.382;2023-04-03T05:42:30;94335.72;;;7.09;61.66
78149;BME280;67396;42.664;23.382;2023-04-03T05:44:56;94343.81;;;6.98;62.61
78149;BME280;67396;42.664;23.382;2023-04-03T05:47:22;94354.59;;;6.84;63.14
78149;BME280;67396;42.664;23.382;2023-04-03T05:49:48;94344.13;;;6.90;62.92
78149;BME280;67396;42.664;23.382;2023-04-03T05:52:26;94341.59;;;6.70;63.29
78149;BME280;67396;42.664;23.382;2023-04-03T05:54:52;94347.72;;;6.57;63.46
78149;BME280;67396;42.664;23.382;2023-04-03T05:57:18;94349.72;;;6.63;63.51
78149;BME280;67396;42.664;23.382;2023-04-03T05:59:45;94342.88;;;6.80;62.62
78149;BME280;67396;42.664;23.382;2023-04-03T06:02:19;94334.44;;;6.96;62.05
78149;BME280;67396;42.664;23.382;2023-04-03T06:04:45;94342.06;;;7.20;62.09
78149;BME280;67396;42.664;23.382;2023-04-03T06:07:16;94337.72;;;7.12;61.58
78149;BME280;67396;42.664;23.382;2023-04-03T06:09:43;94334.09;;;7.04;62.29
78149;BME280;67396;42.664;23.382;2023-04-03T06:12:08;94328.28;;;7.06;62.32
78149;BME280;67396;42.664;23.382;2023-04-03T06:14:34;94329.13;;;7.13;62.62
78149;BME280;67396;42.664;23.382;2023-04-03T06:17:00;94326.47;;;7.21;62.01
78149;BME280;67396;42.664;23.382;2023-04-03T06:19:26;94319.72;;;7.62;71.66
78149;BME280;67396;42.664;23.382;2023-04-03T06:21:52;94323.72;;;8.87;70.88
78149;BME280;67396;42.664;23.382;2023-04-03T06:24:19;94315.50;;;9.19;58.06
78149;BME280;67396;42.664;23.382;2023-04-03T06:26:47;94322.50;;;8.74;57.27
78149;BME280;67396;42.664;23.382;2023-04-03T06:29:12;94339.34;;;8.83;56.80
78149;BME280;67396;42.664;23.382;2023-04-03T06:31:38;94341.66;;;8.66;56.65
78149;BME280;67396;42.664;23.382;2023-04-03T06:34:04;94349.44;;;8.50;56.99
78149;BME280;67396;42.664;23.382;2023-04-03T06:36:40;94350.25;;;8.68;56.18
78149;BME280;67396;42.664;23.382;2023-04-03T06:39:07;94352.63;;;8.77;56.04
78149;BME280;67396;42.664;23.382;2023-04-03T06:41:33;94346.38;;;8.84;55.85
78149;BME280;67396;42.664;23.382;2023-04-03T06:43:59;94349.47;;;8.75;56.21
78149;BME280;67396;42.664;23.382;2023-04-03T06:46:27;94344.00;;;8.61;56.85
78149;BME280;67396;42.664;23.382;2023-04-03T06:48:52;94338.09;;;8.62;57.00
78149;BME280;67396;42.664;23.382;2023-04-03T06:51:22;94341.94;;;8.33;58.22
78149;BME280;67396;42.664;23.382;2023-04-03T06:53:48;94347.00;;;8.31;57.70
78149;BME280;67396;42.664;23.382;2023-04-03T06:56:15;94337.59;;;8.28;58.53
78149;BME280;67396;42.664;23.382;2023-04-03T06:58:42;94346.81;;;7.96;60.02
78149;BME280;67396;42.664;23.382;2023-04-03T07:01:10;94343.69;;;7.93;60.14
78149;BME280;67396;42.664;23.382;2023-04-03T07:03:40;94343.78;;;8.08;59.80
78149;BME280;67396;42.664;23.382;2023-04-03T07:06:07;94328.06;;;7.94;60.07
78149;BME280;67396;42.664;23.382;2023-04-03T07:08:34;94338.56;;;7.81;60.48
78149;BME280;67396;42.664;23.382;2023-04-03T07:11:00;94333.84;;;7.78;60.16
78149;BME280;67396;42.664;23.382;2023-04-03T07:13:26;94332.31;;;7.84;60.30
78149;BME280;67396;42.664;23.382;2023-04-03T07:15:52;94331.25;;;8.07;60.03
78149;BME280;67396;42.664;23.382;2023-04-03T07:18:21;94329.78;;;8.30;59.30
78149;BME280;67396;42.664;23.382;2023-04-03T07:20:50;94328.69;;;8.35;59.43
78149;BME280;67396;42.664;23.382;2023-04-03T07:23:18;94318.78;;;8.13;60.15
78149;BME280;67396;42.664;23.382;2023-04-03T07:25:48;94330.88;;;8.08;60.10
78149;BME280;67396;42.664;23.382;2023-04-03T07:28:18;94317.94;;;8.02;60.85
78149;BME280;67396;42.664;23.382;2023-04-03T07:30:53;94319.19;;;8.15;59.91
78149;BME280;67396;42.664;23.382;2023-04-03T07:33:21;94333.00;;;8.43;59.57
78149;BME280;67396;42.664;23.382;2023-04-03T07:35:50;94320.13;;;8.54;59.13
78149;BME280;67396;42.664;23.382;2023-04-03T07:38:16;94327.97;;;8.74;58.05
78149;BME280;67396;42.664;23.382;2023-04-03T07:40:49;94329.59;;;8.96;57.51
78149;BME280;67396;42.664;23.382;2023-04-03T07:43:15;94319.03;;;9.01;57.32
78149;BME280;67396;42.664;23.382;2023-04-03T07:45:41;94317.47;;;9.22;57.01
78149;BME280;67396;42.664;23.382;2023-04-03T07:48:06;94312.78;;;9.12;57.47
78149;BME280;67396;42.664;23.382;2023-04-03T07:50:32;94305.34;;;9.19;57.60
78149;BME280;67396;42.664;23.382;2023-04-03T07:52:58;94308.84;;;9.37;56.07
78149;BME280;67396;42.664;23.382;2023-04-03T07:55:24;94305.69;;;9.42;56.56
78149;BME280;67396;42.664;23.382;2023-04-03T07:57:49;94308.84;;;9.41;58.63
78149;BME280;67396;42.664;23.382;2023-04-03T08:00:18;94300.22;;;9.42;62.86
78149;BME280;67396;42.664;23.382;2023-04-03T08:02:44;94302.16;;;9.67;58.94
78149;BME280;67396;42.664;23.382;2023-04-03T08:05:16;94303.28;;;9.76;59.50
78149;BME280;67396;42.664;23.382;2023-04-03T08:07:42;94304.88;;;9.70;58.28
78149;BME280;67396;42.664;23.382;2023-04-03T08:10:08;94301.34;;;9.73;56.18
78149;BME280;67396;42.664;23.382;2023-04-03T08:12:34;94301.78;;;9.58;58.04
78149;BME280;67396;42.664;23.382;2023-04-03T08:15:00;94297.84;;;9.62;57.23
78149;BME280;67396;42.664;23.382;2023-04-03T08:17:26;94297.84;;;9.73;55.42
78149;BME280;67396;42.664;23.382;2023-04-03T08:19:54;94295.50;;;9.75;55.40
78149;BME280;67396;42.664;23.382;2023-04-03T08:22:20;94295.09;;;9.69;55.89
78149;BME280;67396;42.664;23.382;2023-04-03T08:24:48;94287.66;;;9.70;56.04
78149;BME280;67396;42.664;23.382;2023-04-03T08:27:15;94286.09;;;9.72;56.27
78149;BME280;67396;42.664;23.382;2023-04-03T08:29:41;94279.78;;;9.86;55.90
78149;BME280;67396;42.664;23.382;2023-04-03T08:32:07;94285.25;;;9.93;55.19
78149;BME280;67396;42.664;23.382;2023-04-03T08:34:32;94281.28;;;10.05;54.85
78149;BME280;67396;42.664;23.382;2023-04-03T08:37:05;94286.75;;;10.08;55.07
78149;BME280;67396;42.664;23.382;2023-04-03T08:39:31;94268.72;;;10.11;55.19
78149;BME280;67396;42.664;23.382;2023-04-03T08:42:11;94266.31;;;10.31;55.21
78149;BME280;67396;42.664;23.382;2023-04-03T08:47:56;94266.28;;;10.38;55.12
78149;BME280;67396;42.664;23.382;2023-04-03T08:50:34;94257.63;;;10.46;54.42
78149;BME280;67396;42.664;23.382;2023-04-03T08:53:02;94256.84;;;10.46;54.56
78149;BME280;67396;42.664;23.382;2023-04-03T08:55:43;94254.53;;;10.37;54.52
78149;BME280;67396;42.664;23.382;2023-04-03T08:58:15;94254.25;;;10.03;54.97
78149;BME280;67396;42.664;23.382;2023-04-03T09:00:50;94253.06;;;10.04;55.61
78149;BME280;67396;42.664;23.382;2023-04-03T09:03:20;94240.47;;;10.28;55.43
78149;BME280;67396;42.664;23.382;2023-04-03T09:05:55;94243.00;;;10.60;54.39
78149;BME280;67396;42.664;23.382;2023-04-03T09:08:27;94244.56;;;10.61;54.04
78149;BME280;67396;42.664;23.382;2023-04-03T09:11:25;94231.50;;;10.79;53.46
78149;BME280;67396;42.664;23.382;2023-04-03T09:14:03;94231.91;;;10.78;54.55
78149;BME280;67396;42.664;23.382;2023-04-03T09:16:35;94225.19;;;10.86;54.10
78149;BME280;67396;42.664;23.382;2023-04-03T09:22:13;94222.69;;;11.02;54.85
78149;BME280;67396;42.664;23.382;2023-04-03T09:24:41;94220.00;;;10.99;54.58
78149;BME280;67396;42.664;23.382;2023-04-03T09:27:10;94215.22;;;11.03;54.38
78149;BME280;67396;42.664;23.382;2023-04-03T09:29:45;94220.53;;;11.24;52.94
78149;BME280;67396;42.664;23.382;2023-04-03T09:34:58;94209.78;;;11.40;51.77
78149;BME280;67396;42.664;23.382;2023-04-03T09:37:42;94213.63;;;11.46;51.76
78149;BME280;67396;42.664;23.382;2023-04-03T09:40:38;94210.16;;;11.42;51.75
78149;BME280;67396;42.664;23.382;2023-04-03T09:45:46;94207.34;;;11.49;51.40
78149;BME280;67396;42.664;23.382;2023-04-03T09:53:44;94196.75;;;11.48;50.89
78149;BME280;67396;42.664;23.382;2023-04-03T09:58:45;94190.75;;;11.60;56.73
78149;BME280;67396;42.664;23.382;2023-04-03T10:01:30;94189.88;;;11.66;49.98
78149;BME280;67396;42.664;23.382;2023-04-03T10:04:22;94193.88;;;11.58;50.10
78149;BME280;67396;42.664;23.382;2023-04-03T10:06:55;94192.28;;;11.61;50.31
78149;BME280;67396;42.664;23.382;2023-04-03T10:09:23;94187.69;;;11.51;50.55
78149;BME280;67396;42.664;23.382;2023-04-03T10:12:07;94194.31;;;11.53;50.19
78149;BME280;67396;42.664;23.382;2023-04-03T10:14:53;94196.34;;;11.49;50.76
78149;BME280;67396;42.664;23.382;2023-04-03T10:17:50;94187.63;;;11.54;50.52
78149;BME280;67396;42.664;23.382;2023-04-03T10:34:33;94164.75;;;11.64;50.86
78149;BME280;67396;42.664;23.382;2023-04-03T10:37:26;94167.97;;;11.59;51.66
78149;BME280;67396;42.664;23.382;2023-04-03T10:40:01;94167.22;;;11.55;51.73
78149;BME280;67396;42.664;23.382;2023-04-03T10:42:46;94154.66;;;11.54;51.94
78149;BME280;67396;42.664;23.382;2023-04-03T10:51:25;94146.25;;;11.68;51.20
78149;BME280;67396;42.664;23.382;2023-04-03T10:54:11;94154.44;;;11.72;50.96
78149;BME280;67396;42.664;23.382;2023-04-03T10:57:00;94150.63;;;11.62;51.41
78149;BME280;67396;42.664;23.382;2023-04-03T11:02:38;94163.09;;;11.70;51.09
78149;BME280;67396;42.664;23.382;2023-04-03T11:05:45;94160.69;;;11.42;50.42
78149;BME280;67396;42.664;23.382;2023-04-03T11:10:56;94160.06;;;10.86;52.70
78149;BME280;67396;42.664;23.382;2023-04-03T11:13:52;94175.69;;;10.93;54.35
78149;BME280;67396;42.664;23.382;2023-04-03T11:16:32;94177.00;;;10.81;54.62
78149;BME280;67396;42.664;23.382;2023-04-03T11:19:04;94172.72;;;10.73;55.28
78149;BME280;67396;42.664;23.382;2023-04-03T11:21:47;94175.75;;;10.89;56.07
78149;BME280;67396;42.664;23.382;2023-04-03T11:24:24;94156.63;;;10.75;57.30
78149;BME280;67396;42.664;23.382;2023-04-03T11:27:05;94170.41;;;10.72;58.59
78149;BME280;67396;42.664;23.382;2023-04-03T11:29:39;94170.44;;;10.65;58.88
78149;BME280;67396;42.664;23.382;2023-04-03T11:35:04;94170.34;;;10.75;59.71
78149;BME280;67396;42.664;23.382;2023-04-03T11:40:28;94169.69;;;10.64;61.17
78149;BME280;67396;42.664;23.382;2023-04-03T11:54:54;94170.75;;;10.15;66.16
78149;BME280;67396;42.664;23.382;2023-04-03T11:57:49;94175.53;;;10.04;67.04
78149;BME280;67396;42.664;23.382;2023-04-03T12:09:00;94171.53;;;10.15;67.16
78149;BME280;67396;42.664;23.382;2023-04-03T12:11:30;94177.19;;;9.87;68.54
78149;BME280;67396;42.664;23.382;2023-04-03T12:21:23;94172.50;;;9.84;67.18
78149;BME280;67396;42.664;23.382;2023-04-03T12:51:14;94130.81;;;9.37;73.56
78149;BME280;67396;42.664;23.382;2023-04-03T12:53:55;94124.94;;;9.35;73.95
78149;BME280;67396;42.664;23.382;2023-04-03T12:56:23;94129.69;;;9.31;73.52
78149;BME280;67396;42.664;23.382;2023-04-03T12:59:26;94126.59;;;9.22;73.24
78149;BME280;67396;42.664;23.382;2023-04-03T13:02:02;94118.34;;;9.26;73.61
78149;BME280;67396;42.664;23.382;2023-04-03T13:04:32;94126.16;;;9.27;73.64
78149;BME280;67396;42.664;23.382;2023-04-03T13:06:58;94131.63;;;9.27;74.02
78149;BME280;67396;42.664;23.382;2023-04-03T13:09:27;94130.09;;;9.23;74.29
78149;BME280;67396;42.664;23.382;2023-04-03T13:11:59;94129.72;;;9.17;74.32
78149;BME280;67396;42.664;23.382;2023-04-03T13:14:27;94130.50;;;9.18;74.54
78149;BME280;67396;42.664;23.382;2023-04-03T13:17:06;94131.69;;;9.13;74.50
78149;BME280;67396;42.664;23.382;2023-04-03T13:19:32;94128.94;;;9.10;75.06
78149;BME280;67396;42.664;23.382;2023-04-03T13:22:01;94129.72;;;9.10;75.30
78149;BME280;67396;42.664;23.382;2023-04-03T13:24:29;94118.41;;;9.04;75.51
78149;BME280;67396;42.664;23.382;2023-04-03T13:27:06;94119.19;;;8.98;75.81
78149;BME280;67396;42.664;23.382;2023-04-03T13:29:34;94119.22;;;8.94;75.96
78149;BME280;67396;42.664;23.382;2023-04-03T13:32:03;94119.63;;;8.93;76.37
78149;BME280;67396;42.664;23.382;2023-04-03T13:34:37;94113.34;;;8.96;76.18
78149;BME280;67396;42.664;23.382;2023-04-03T13:37:03;94106.31;;;8.95;75.58
78149;BME280;67396;42.664;23.382;2023-04-03T13:39:35;94108.66;;;8.93;76.21
78149;BME280;67396;42.664;23.382;2023-04-03T13:42:23;94111.78;;;8.95;75.84
78149;BME280;67396;42.664;23.382;2023-04-03T13:44:49;94111.81;;;8.88;76.04
78149;BME280;67396;42.664;23.382;2023-04-03T13:47:44;94102.84;;;8.77;76.17
78149;BME280;67396;42.664;23.382;2023-04-03T13:50:23;94107.91;;;8.82;77.08
78149;BME280;67396;42.664;23.382;2023-04-03T13:55:35;94100.88;;;8.74;76.94
78149;BME280;67396;42.664;23.382;2023-04-03T14:00:50;94095.03;;;8.68;78.07
78149;BME280;67396;42.664;23.382;2023-04-03T14:05:51;94100.09;;;8.62;78.92
78149;BME280;67396;42.664;23.382;2023-04-03T14:08:18;94085.66;;;8.65;79.12
78149;BME280;67396;42.664;23.382;2023-04-03T14:10:54;94084.09;;;8.64;78.51
78149;BME280;67396;42.664;23.382;2023-04-03T14:13:21;94084.09;;;8.64;78.67
78149;BME280;67396;42.664;23.382;2023-04-03T14:15:56;94076.69;;;8.68;79.13
78149;BME280;67396;42.664;23.382;2023-04-03T14:28:57;94081.00;;;8.59;78.71
78149;BME280;67396;42.664;23.382;2023-04-03T14:39:24;94072.00;;;8.55;80.09
78149;BME280;67396;42.664;23.382;2023-04-03T14:41:53;94071.66;;;8.35;80.15
78149;BME280;67396;42.664;23.382;2023-04-03T14:44:19;94079.81;;;8.46;80.52
78149;BME280;67396;42.664;23.382;2023-04-03T14:46:47;94076.28;;;8.56;79.98
78149;BME280;67396;42.664;23.382;2023-04-03T14:52:18;94070.03;;;8.59;78.53
78149;BME280;67396;42.664;23.382;2023-04-03T14:55:14;94068.88;;;8.56;79.08
78149;BME280;67396;42.664;23.382;2023-04-03T15:04:11;94055.19;;;8.56;79.71
78149;BME280;67396;42.664;23.382;2023-04-03T15:06:40;94057.13;;;8.63;79.14
78149;BME280;67396;42.664;23.382;2023-04-03T15:09:21;94046.16;;;8.74;78.44
78149;BME280;67396;42.664;23.382;2023-04-03T15:14:14;94052.41;;;8.78;78.58
78149;BME280;67396;42.664;23.382;2023-04-03T15:16:41;94048.56;;;8.47;79.02
78149;BME280;67396;42.664;23.382;2023-04-03T15:19:10;94046.22;;;8.56;79.05
78149;BME280;67396;42.664;23.382;2023-04-03T15:21:39;94035.22;;;8.74;79.01
78149;BME280;67396;42.664;23.382;2023-04-03T15:24:05;94045.78;;;8.64;78.45
78149;BME280;67396;42.664;23.382;2023-04-03T15:26:32;94042.28;;;8.64;78.43
78149;BME280;67396;42.664;23.382;2023-04-03T15:28:58;94034.47;;;8.70;77.22
78149;BME280;67396;42.664;23.382;2023-04-03T15:31:29;94033.69;;;8.65;77.47
78149;BME280;67396;42.664;23.382;2023-04-03T15:40:54;94023.53;;;8.55;78.47
78149;BME280;67396;42.664;23.382;2023-04-03T15:48:52;94007.94;;;8.38;78.64
78149;BME280;67396;42.664;23.382;2023-04-03T15:53:57;94009.13;;;8.23;79.93
78149;BME280;67396;42.664;23.382;2023-04-03T15:56:35;94012.66;;;8.34;79.62